EDT,Max TemperatureF,Mean TemperatureF,Min TemperatureF,Max Dew PointF,MeanDew PointF,Min DewpointF,Max Humidity, Mean Humidity, Min Humidity, Max Sea Level PressureIn, Mean Sea Level PressureIn, Min Sea Level PressureIn, Max VisibilityMiles, Mean VisibilityMiles, Min VisibilityMiles, Max Wind SpeedMPH, Mean Wind SpeedMPH, Max Gust SpeedMPH,PrecipitationIn, CloudCover, Events, WindDirDegrees
2012-10-1,60,56,51,55,51,48,96,88,80,29.94,29.78,29.64,10,8,0,6,1,30,0.13,7,Fog-Rain,182
2012-10-2,65,57,48,57,51,46,96,82,67,30.07,30.01,29.95,10,5,0,7,1,9,T,7,Fog,139
2012-10-3,65,62,59,63,59,57,93,90,87,30.17,30.11,30.06,10,6,1,5,0,35,0.05,8,Rain,-1
2012-10-4,65,63,60,62,60,58,100,94,87,30.17,30.12,30.03,10,6,0,7,1,10,0.07,8,Fog-Rain,160
2012-10-5,77,66,54,59,54,51,93,67,40,30.04,29.99,29.91,10,4,0,10,2,14,0.02,5,Fog,226
2012-10-6,70,58,45,58,52,36,93,75,56,29.96,29.82,29.70,10,6,0,18,4,24,T,6,Fog-Rain,265
2012-10-7,57,48,39,45,40,35,93,70,47,30.08,30.04,29.97,10,9,5,12,2,20,0.19,5,Rain,247
2012-10-8,57,50,42,45,41,31,93,66,38,30.33,30.19,30.08,10,10,7,9,1,12,0.01,7,Rain,172
2012-10-9,55,46,37,46,40,35,100,83,66,30.33,30.26,30.15,10,8,0,7,0,12,0.00,8,Fog,0
2012-10-10,56,51,45,54,48,36,93,74,54,30.16,29.90,29.73,10,4,1,20,2,41,0.29,8,Rain,192
2012-10-11,54,46,37,40,33,28,85,62,38,30.11,30.03,29.84,10,10,8,20,7,28,0.01,4,Rain,261
2012-10-12,51,40,29,39,29,18,89,62,34,30.40,30.16,29.99,10,10,10,18,5,28,0.05,4,Rain,307
2012-10-13,52,39,25,32,22,19,88,58,28,30.48,30.41,30.29,10,10,10,2,2,3,0.03,1,,264
2012-10-14,56,48,40,52,45,36,93,88,82,30.24,30.01,29.89,10,5,0,7,1,8,0.32,6,Fog-Rain,311
2012-10-15,72,60,47,61,55,45,97,77,57,29.86,29.68,29.61,10,5,0,20,3,26,0.17,7,Fog-Rain,177
2012-10-16,56,44,32,54,36,30,93,67,41,29.92,29.73,29.62,10,9,2,20,7,29,T,5,,285
2012-10-17,62,46,30,37,30,27,92,64,36,30.02,29.97,29.93,10,7,0,8,1,9,0.00,3,Fog,97
2012-10-18,66,50,34,43,36,30,92,66,40,30.11,30.06,30.00,10,7,0,13,2,20,0.00,2,Fog,160
2012-10-19,62,55,47,59,54,42,93,87,80,30.08,29.86,29.72,10,4,0,9,1,15,1.30,8,Fog-Rain,22
2012-10-20,73,58,42,61,54,40,100,67,33,29.75,29.68,29.59,10,5,0,7,2,,T,5,Fog-Rain,249
2012-10-21,61,50,38,43,38,36,92,66,40,29.89,29.84,29.77,10,7,0,20,6,25,T,5,Fog,283
2012-10-22,65,53,40,39,38,36,86,60,34,30.04,29.95,29.89,10,10,10,13,6,18,0.00,2,,292
2012-10-23,63,49,35,41,38,32,92,68,43,30.17,30.11,30.05,10,10,6,10,1,15,0.00,0,,314
2012-10-24,59,48,36,39,35,29,92,62,31,30.25,30.20,30.14,10,10,9,7,0,9,0.00,4,,0
2012-10-25,60,51,41,42,38,31,89,61,33,30.30,30.26,30.24,10,10,10,9,1,12,0.00,6,,172
2012-10-26,68,55,42,51,46,39,93,77,60,30.25,30.18,30.13,10,7,0,7,1,12,0.01,5,Fog,132
2012-10-27,59,53,47,52,49,45,96,86,75,30.15,30.08,30.03,10,5,0,3,0,3,0.00,8,Fog,-1
2012-10-28,58,53,47,50,44,40,93,75,57,30.04,29.97,29.88,10,9,5,13,4,16,0.00,6,,74
2012-10-29,63,58,52,60,52,43,97,82,66,29.85,29.50,29.25,10,6,2,25,12,41,0.96,8,Rain,50
2012-10-30,68,61,53,60,54,47,93,71,48,29.55,29.46,29.29,10,8,2,22,6,33,0.53,7,Rain,108
2012-10-31,55,50,44,52,46,36,96,75,54,29.54,29.49,29.45,10,7,0,17,3,24,0.02,7,Fog-Rain,174